sensor_id;sensor_type;location;lat;lon;timestamp;temperature;humidity
9965;DHT22;5023;53.554;9.964;2023-12-28T00:00:04;8.40;99.90
9965;DHT22;5023;53.554;9.964;2023-12-28T00:05:07;8.50;99.90
9965;DHT22;5023;53.554;9.964;2023-12-28T00:10:11;8.50;99.90
9965;DHT22;5023;53.554;9.964;2023-12-28T00:15:13;8.60;99.90
9965;DHT22;5023;53.554;9.964;2023-12-28T00:20:15;8.50;99.90
9965;DHT22;5023;53.554;9.964;2023-12-28T00:25:18;8.60;99.90
9965;DHT22;5023;53.554;9.964;2023-12-28T00:30:20;8.60;99.90
9965;DHT22;5023;53.554;9.964;2023-12-28T00:35:22;8.50;99.90
9965;DHT22;5023;53.554;9.964;2023-12-28T00:40:25;8.60;99.90
9965;DHT22;5023;53.554;9.964;2023-12-28T00:45:27;8.40;99.90
9965;DHT22;5023;53.554;9.964;2023-12-28T00:50:30;8.30;99.90
9965;DHT22;5023;53.554;9.964;2023-12-28T00:55:35;8.20;99.90
9965;DHT22;5023;53.554;9.964;2023-12-28T01:00:37;8.20;99.90
9965;DHT22;5023;53.554;9.964;2023-12-28T01:05:39;8.20;99.90
9965;DHT22;5023;53.554;9.964;2023-12-28T01:10:42;8.20;99.90
9965;DHT22;5023;53.554;9.964;2023-12-28T01:15:44;8.20;99.90
9965;DHT22;5023;53.554;9.964;2023-12-28T01:20:46;8.10;99.90
9965;DHT22;5023;53.554;9.964;2023-12-28T01:25:49;8.10;99.90
9965;DHT22;5023;53.554;9.964;2023-12-28T01:30:53;8.20;99.90
9965;DHT22;5023;53.554;9.964;2023-12-28T01:35:55;8.20;99.90
9965;DHT22;5023;53.554;9.964;2023-12-28T01:40:58;8.20;99.90
9965;DHT22;5023;53.554;9.964;2023-12-28T01:46:01;8.20;99.90
9965;DHT22;5023;53.554;9.964;2023-12-28T01:51:03;8.30;99.90
9965;DHT22;5023;53.554;9.964;2023-12-28T01:56:07;8.30;99.90
9965;DHT22;5023;53.554;9.964;2023-12-28T02:01:10;8.40;99.90
9965;DHT22;5023;53.554;9.964;2023-12-28T02:06:14;8.40;99.90
9965;DHT22;5023;53.554;9.964;2023-12-28T02:11:18;8.40;99.90
9965;DHT22;5023;53.554;9.964;2023-12-28T02:16:26;8.50;99.90
9965;DHT22;5023;53.554;9.964;2023-12-28T02:21:31;8.50;99.90
9965;DHT22;5023;53.554;9.964;2023-12-28T02:26:35;8.60;99.90
9965;DHT22;5023;53.554;9.964;2023-12-28T02:31:41;8.60;99.90
9965;DHT22;5023;53.554;9.964;2023-12-28T02:36:47;8.60;99.90
9965;DHT22;5023;53.554;9.964;2023-12-28T02:41:51;8.60;99.90
9965;DHT22;5023;53.554;9.964;2023-12-28T02:46:53;8.60;99.90
9965;DHT22;5023;53.554;9.964;2023-12-28T02:51:55;8.60;99.90
9965;DHT22;5023;53.554;9.964;2023-12-28T02:56:58;8.60;99.90
9965;DHT22;5023;53.554;9.964;2023-12-28T03:02:00;8.60;99.90
9965;DHT22;5023;53.554;9.964;2023-12-28T03:07:02;8.70;99.90
9965;DHT22;5023;53.554;9.964;2023-12-28T03:12:06;8.70;99.90
9965;DHT22;5023;53.554;9.964;2023-12-28T03:17:08;8.70;99.90
9965;DHT22;5023;53.554;9.964;2023-12-28T03:22:10;8.70;99.90
9965;DHT22;5023;53.554;9.964;2023-12-28T03:27:14;8.70;99.90
9965;DHT22;5023;53.554;9.964;2023-12-28T03:32:16;8.70;99.90
9965;DHT22;5023;53.554;9.964;2023-12-28T03:37:18;8.70;99.90
9965;DHT22;5023;53.554;9.964;2023-12-28T03:42:21;8.70;99.90
9965;DHT22;5023;53.554;9.964;2023-12-28T03:47:23;8.60;99.90
9965;DHT22;5023;53.554;9.964;2023-12-28T03:52:26;8.60;99.90
9965;DHT22;5023;53.554;9.964;2023-12-28T03:57:31;8.60;99.90
9965;DHT22;5023;53.554;9.964;2023-12-28T04:02:33;8.60;99.90
9965;DHT22;5023;53.554;9.964;2023-12-28T04:07:35;8.60;99.90
9965;DHT22;5023;53.554;9.964;2023-12-28T04:12:38;8.60;99.90
9965;DHT22;5023;53.554;9.964;2023-12-28T04:17:40;8.60;99.90
9965;DHT22;5023;53.554;9.964;2023-12-28T04:22:42;8.60;99.90
9965;DHT22;5023;53.554;9.964;2023-12-28T04:27:46;8.60;99.90
9965;DHT22;5023;53.554;9.964;2023-12-28T04:32:48;8.60;99.90
9965;DHT22;5023;53.554;9.964;2023-12-28T04:37:50;8.60;99.90
9965;DHT22;5023;53.554;9.964;2023-12-28T04:42:53;8.60;99.90
9965;DHT22;5023;53.554;9.964;2023-12-28T04:47:55;8.60;99.90
9965;DHT22;5023;53.554;9.964;2023-12-28T04:52:57;8.60;99.90
9965;DHT22;5023;53.554;9.964;2023-12-28T04:58:00;8.60;99.90
9965;DHT22;5023;53.554;9.964;2023-12-28T05:03:02;8.60;99.90
9965;DHT22;5023;53.554;9.964;2023-12-28T05:08:05;8.60;99.90
9965;DHT22;5023;53.554;9.964;2023-12-28T05:13:08;8.50;99.90
9965;DHT22;5023;53.554;9.964;2023-12-28T05:18:10;8.50;99.90
9965;DHT22;5023;53.554;9.964;2023-12-28T05:23:13;8.50;99.90
9965;DHT22;5023;53.554;9.964;2023-12-28T05:28:16;8.60;99.90
9965;DHT22;5023;53.554;9.964;2023-12-28T05:33:18;8.60;99.90
9965;DHT22;5023;53.554;9.964;2023-12-28T05:38:20;8.60;99.90
9965;DHT22;5023;53.554;9.964;2023-12-28T05:43:23;8.60;99.90
9965;DHT22;5023;53.554;9.964;2023-12-28T05:48:25;8.70;99.90
9965;DHT22;5023;53.554;9.964;2023-12-28T05:53:27;8.70;99.90
9965;DHT22;5023;53.554;9.964;2023-12-28T05:58:31;8.70;99.90
9965;DHT22;5023;53.554;9.964;2023-12-28T06:03:33;8.70;99.90
9965;DHT22;5023;53.554;9.964;2023-12-28T06:08:34;8.80;99.90
9965;DHT22;5023;53.554;9.964;2023-12-28T06:13:38;8.90;99.90
9965;DHT22;5023;53.554;9.964;2023-12-28T06:18:40;8.90;99.90
9965;DHT22;5023;53.554;9.964;2023-12-28T06:23:41;9.00;99.90
9965;DHT22;5023;53.554;9.964;2023-12-28T06:28:45;9.10;99.90
9965;DHT22;5023;53.554;9.964;2023-12-28T06:33:46;9.10;99.90
9965;DHT22;5023;53.554;9.964;2023-12-28T06:38:49;9.20;99.90
9965;DHT22;5023;53.554;9.964;2023-12-28T06:43:52;9.20;99.90
9965;DHT22;5023;53.554;9.964;2023-12-28T06:48:54;9.30;99.90
9965;DHT22;5023;53.554;9.964;2023-12-28T06:53:56;9.40;99.90
9965;DHT22;5023;53.554;9.964;2023-12-28T06:58:59;9.40;99.90
9965;DHT22;5023;53.554;9.964;2023-12-28T07:04:01;9.50;99.90
9965;DHT22;5023;53.554;9.964;2023-12-28T07:09:03;9.50;99.90
9965;DHT22;5023;53.554;9.964;2023-12-28T07:14:06;9.60;99.90
9965;DHT22;5023;53.554;9.964;2023-12-28T07:19:08;9.60;99.90
9965;DHT22;5023;53.554;9.964;2023-12-28T07:24:10;9.60;99.90
9965;DHT22;5023;53.554;9.964;2023-12-28T07:29:13;9.60;99.90
9965;DHT22;5023;53.554;9.964;2023-12-28T07:34:15;9.60;99.90
9965;DHT22;5023;53.554;9.964;2023-12-28T07:39:17;9.60;99.90
9965;DHT22;5023;53.554;9.964;2023-12-28T07:44:20;9.70;99.90
9965;DHT22;5023;53.554;9.964;2023-12-28T07:49:22;9.80;99.90
9965;DHT22;5023;53.554;9.964;2023-12-28T07:54:24;9.70;99.90
9965;DHT22;5023;53.554;9.964;2023-12-28T07:59:28;9.70;99.90
9965;DHT22;5023;53.554;9.964;2023-12-28T08:04:29;9.80;99.90
9965;DHT22;5023;53.554;9.964;2023-12-28T08:09:31;9.80;99.90
9965;DHT22;5023;53.554;9.964;2023-12-28T08:14:35;9.80;99.90
9965;DHT22;5023;53.554;9.964;2023-12-28T08:19:37;9.80;99.90
9965;DHT22;5023;53.554;9.964;2023-12-28T08:24:39;9.90;99.90
9965;DHT22;5023;53.554;9.964;2023-12-28T08:29:42;10.00;99.90
9965;DHT22;5023;53.554;9.964;2023-12-28T08:34:44;10.10;99.90
9965;DHT22;5023;53.554;9.964;2023-12-28T08:39:46;10.10;99.90
9965;DHT22;5023;53.554;9.964;2023-12-28T08:44:50;10.10;99.90
9965;DHT22;5023;53.554;9.964;2023-12-28T08:49:52;10.20;99.90
9965;DHT22;5023;53.554;9.964;2023-12-28T08:54:54;10.20;99.90
9965;DHT22;5023;53.554;9.964;2023-12-28T08:59:58;10.30;99.90
9965;DHT22;5023;53.554;9.964;2023-12-28T09:05:00;10.30;99.90
9965;DHT22;5023;53.554;9.964;2023-12-28T09:10:03;10.30;99.90
9965;DHT22;5023;53.554;9.964;2023-12-28T09:15:07;10.30;99.90
9965;DHT22;5023;53.554;9.964;2023-12-28T09:20:10;10.40;99.90
9965;DHT22;5023;53.554;9.964;2023-12-28T09:25:13;10.40;99.90
9965;DHT22;5023;53.554;9.964;2023-12-28T09:30:17;10.50;99.90
9965;DHT22;5023;53.554;9.964;2023-12-28T09:35:22;10.60;99.90
9965;DHT22;5023;53.554;9.964;2023-12-28T09:40:25;10.60;99.90
9965;DHT22;5023;53.554;9.964;2023-12-28T09:45:28;10.70;99.90
9965;DHT22;5023;53.554;9.964;2023-12-28T09:50:30;10.70;99.90
9965;DHT22;5023;53.554;9.964;2023-12-28T09:55:32;10.80;99.90
9965;DHT22;5023;53.554;9.964;2023-12-28T10:00:36;10.80;99.90
9965;DHT22;5023;53.554;9.964;2023-12-28T10:05:40;10.80;99.90
9965;DHT22;5023;53.554;9.964;2023-12-28T10:10:43;10.80;99.90
9965;DHT22;5023;53.554;9.964;2023-12-28T10:15:52;10.90;99.90
9965;DHT22;5023;53.554;9.964;2023-12-28T10:20:54;10.90;99.90
9965;DHT22;5023;53.554;9.964;2023-12-28T10:25:56;10.90;99.90
9965;DHT22;5023;53.554;9.964;2023-12-28T10:31:00;10.90;99.90
9965;DHT22;5023;53.554;9.964;2023-12-28T10:36:06;11.00;99.90
9965;DHT22;5023;53.554;9.964;2023-12-28T10:41:08;11.00;99.90
9965;DHT22;5023;53.554;9.964;2023-12-28T10:46:15;11.00;99.90
9965;DHT22;5023;53.554;9.964;2023-12-28T10:51:23;11.10;99.90
9965;DHT22;5023;53.554;9.964;2023-12-28T10:56:33;11.10;99.90
9965;DHT22;5023;53.554;9.964;2023-12-28T11:01:41;11.10;99.90
9965;DHT22;5023;53.554;9.964;2023-12-28T11:06:43;11.20;99.90
9965;DHT22;5023;53.554;9.964;2023-12-28T11:11:46;11.20;99.90
9965;DHT22;5023;53.554;9.964;2023-12-28T11:16:52;11.20;99.90
9965;DHT22;5023;53.554;9.964;2023-12-28T11:21:55;11.20;99.90
9965;DHT22;5023;53.554;9.964;2023-12-28T11:26:58;11.30;99.90
9965;DHT22;5023;53.554;9.964;2023-12-28T11:32:01;11.30;99.90
9965;DHT22;5023;53.554;9.964;2023-12-28T11:37:04;11.20;99.90
9965;DHT22;5023;53.554;9.964;2023-12-28T11:42:09;11.20;99.90
9965;DHT22;5023;53.554;9.964;2023-12-28T11:47:13;11.30;99.90
9965;DHT22;5023;53.554;9.964;2023-12-28T11:52:23;11.30;99.90
9965;DHT22;5023;53.554;9.964;2023-12-28T11:57:25;11.20;99.90
9965;DHT22;5023;53.554;9.964;2023-12-28T12:02:28;11.30;99.90
9965;DHT22;5023;53.554;9.964;2023-12-28T12:07:31;11.30;99.90
9965;DHT22;5023;53.554;9.964;2023-12-28T12:12:32;11.30;99.90
9965;DHT22;5023;53.554;9.964;2023-12-28T12:17:36;11.30;99.90
9965;DHT22;5023;53.554;9.964;2023-12-28T12:22:39;11.30;99.90
9965;DHT22;5023;53.554;9.964;2023-12-28T12:27:41;11.40;99.90
9965;DHT22;5023;53.554;9.964;2023-12-28T12:32:44;11.40;99.90
9965;DHT22;5023;53.554;9.964;2023-12-28T12:37:46;11.50;99.90
9965;DHT22;5023;53.554;9.964;2023-12-28T12:42:53;11.50;99.90
9965;DHT22;5023;53.554;9.964;2023-12-28T12:47:57;11.50;99.90
9965;DHT22;5023;53.554;9.964;2023-12-28T12:53:00;11.50;99.90
9965;DHT22;5023;53.554;9.964;2023-12-28T12:58:03;11.50;99.90
9965;DHT22;5023;53.554;9.964;2023-12-28T13:03:09;11.40;99.90
9965;DHT22;5023;53.554;9.964;2023-12-28T13:08:11;11.50;99.90
9965;DHT22;5023;53.554;9.964;2023-12-28T13:13:13;11.40;99.90
9965;DHT22;5023;53.554;9.964;2023-12-28T13:18:16;11.40;99.90
9965;DHT22;5023;53.554;9.964;2023-12-28T13:23:18;11.40;99.90
9965;DHT22;5023;53.554;9.964;2023-12-28T13:28:20;11.50;99.90
9965;DHT22;5023;53.554;9.964;2023-12-28T13:33:23;11.50;99.90
9965;DHT22;5023;53.554;9.964;2023-12-28T13:38:25;11.40;99.90
9965;DHT22;5023;53.554;9.964;2023-12-28T13:43:28;11.40;99.90
9965;DHT22;5023;53.554;9.964;2023-12-28T13:48:31;11.40;99.90
9965;DHT22;5023;53.554;9.964;2023-12-28T13:53:33;11.40;99.90
9965;DHT22;5023;53.554;9.964;2023-12-28T13:58:40;11.30;99.90
9965;DHT22;5023;53.554;9.964;2023-12-28T14:03:44;11.30;99.90
9965;DHT22;5023;53.554;9.964;2023-12-28T14:08:46;11.20;99.90
9965;DHT22;5023;53.554;9.964;2023-12-28T14:13:48;11.10;99.90
9965;DHT22;5023;53.554;9.964;2023-12-28T14:18:51;11.10;99.90
9965;DHT22;5023;53.554;9.964;2023-12-28T14:23:53;11.10;99.90
9965;DHT22;5023;53.554;9.964;2023-12-28T14:28:56;11.10;99.90
9965;DHT22;5023;53.554;9.964;2023-12-28T14:33:59;11.00;99.90
9965;DHT22;5023;53.554;9.964;2023-12-28T14:39:06;11.10;99.90
9965;DHT22;5023;53.554;9.964;2023-12-28T14:44:08;11.10;99.90
9965;DHT22;5023;53.554;9.964;2023-12-28T14:49:11;11.10;99.90
9965;DHT22;5023;53.554;9.964;2023-12-28T14:54:13;11.20;99.90
9965;DHT22;5023;53.554;9.964;2023-12-28T14:59:15;11.30;99.90
9965;DHT22;5023;53.554;9.964;2023-12-28T15:04:18;11.30;99.90
9965;DHT22;5023;53.554;9.964;2023-12-28T15:09:20;11.30;99.90
9965;DHT22;5023;53.554;9.964;2023-12-28T15:14:23;11.20;99.90
9965;DHT22;5023;53.554;9.964;2023-12-28T15:19:27;11.10;99.90
9965;DHT22;5023;53.554;9.964;2023-12-28T15:24:30;11.10;99.90
9965;DHT22;5023;53.554;9.964;2023-12-28T15:29:32;11.10;99.90
9965;DHT22;5023;53.554;9.964;2023-12-28T15:34:36;11.10;99.90
9965;DHT22;5023;53.554;9.964;2023-12-28T15:39:37;11.00;99.90
9965;DHT22;5023;53.554;9.964;2023-12-28T15:44:39;11.00;99.90
9965;DHT22;5023;53.554;9.964;2023-12-28T15:49:43;11.00;99.90
9965;DHT22;5023;53.554;9.964;2023-12-28T15:54:45;11.00;99.90
9965;DHT22;5023;53.554;9.964;2023-12-28T15:59:47;11.00;99.90
9965;DHT22;5023;53.554;9.964;2023-12-28T16:04:51;11.00;99.90
9965;DHT22;5023;53.554;9.964;2023-12-28T16:09:54;11.00;99.90
9965;DHT22;5023;53.554;9.964;2023-12-28T16:14:56;11.00;99.90
9965;DHT22;5023;53.554;9.964;2023-12-28T16:20:00;10.90;99.90
9965;DHT22;5023;53.554;9.964;2023-12-28T16:25:02;10.90;99.90
9965;DHT22;5023;53.554;9.964;2023-12-28T16:30:06;10.90;99.90
9965;DHT22;5023;53.554;9.964;2023-12-28T16:35:10;10.90;99.90
9965;DHT22;5023;53.554;9.964;2023-12-28T16:40:12;10.90;99.90
9965;DHT22;5023;53.554;9.964;2023-12-28T16:45:15;10.90;99.90
9965;DHT22;5023;53.554;9.964;2023-12-28T16:50:18;11.00;99.90
9965;DHT22;5023;53.554;9.964;2023-12-28T16:55:24;10.90;99.90
9965;DHT22;5023;53.554;9.964;2023-12-28T17:00:27;10.90;99.90
9965;DHT22;5023;53.554;9.964;2023-12-28T17:05:31;10.90;99.90
9965;DHT22;5023;53.554;9.964;2023-12-28T17:10:33;10.90;99.90
9965;DHT22;5023;53.554;9.964;2023-12-28T17:15:40;10.90;99.90
9965;DHT22;5023;53.554;9.964;2023-12-28T17:20:45;10.80;99.90
9965;DHT22;5023;53.554;9.964;2023-12-28T17:25:56;10.70;99.90
9965;DHT22;5023;53.554;9.964;2023-12-28T17:31:01;10.70;99.90
9965;DHT22;5023;53.554;9.964;2023-12-28T17:36:06;10.60;99.90
9965;DHT22;5023;53.554;9.964;2023-12-28T17:41:11;10.60;99.90
9965;DHT22;5023;53.554;9.964;2023-12-28T17:46:18;10.60;99.90
9965;DHT22;5023;53.554;9.964;2023-12-28T17:51:28;10.50;99.90
9965;DHT22;5023;53.554;9.964;2023-12-28T17:56:31;10.50;99.90
9965;DHT22;5023;53.554;9.964;2023-12-28T18:01:33;10.50;99.90
9965;DHT22;5023;53.554;9.964;2023-12-28T18:06:36;10.60;99.90
9965;DHT22;5023;53.554;9.964;2023-12-28T18:11:39;10.60;99.90
9965;DHT22;5023;53.554;9.964;2023-12-28T18:16:42;10.70;99.90
9965;DHT22;5023;53.554;9.964;2023-12-28T18:21:45;10.70;99.90
9965;DHT22;5023;53.554;9.964;2023-12-28T18:26:47;10.70;99.90
9965;DHT22;5023;53.554;9.964;2023-12-28T18:31:49;10.70;99.90
9965;DHT22;5023;53.554;9.964;2023-12-28T18:36:53;10.70;99.90
9965;DHT22;5023;53.554;9.964;2023-12-28T18:41:55;10.70;99.90
9965;DHT22;5023;53.554;9.964;2023-12-28T18:46:58;10.80;99.90
9965;DHT22;5023;53.554;9.964;2023-12-28T18:52:02;10.80;99.90
9965;DHT22;5023;53.554;9.964;2023-12-28T18:57:05;10.80;99.90
9965;DHT22;5023;53.554;9.964;2023-12-28T19:02:07;10.80;99.90
9965;DHT22;5023;53.554;9.964;2023-12-28T19:07:10;10.80;99.90
9965;DHT22;5023;53.554;9.964;2023-12-28T19:12:12;10.70;99.90
9965;DHT22;5023;53.554;9.964;2023-12-28T19:17:14;10.70;99.90
9965;DHT22;5023;53.554;9.964;2023-12-28T19:22:17;10.70;99.90
9965;DHT22;5023;53.554;9.964;2023-12-28T19:27:19;10.70;99.90
9965;DHT22;5023;53.554;9.964;2023-12-28T19:32:21;10.80;99.90
9965;DHT22;5023;53.554;9.964;2023-12-28T19:37:25;10.70;99.90
9965;DHT22;5023;53.554;9.964;2023-12-28T19:42:27;10.70;99.90
9965;DHT22;5023;53.554;9.964;2023-12-28T19:47:29;10.70;99.90
9965;DHT22;5023;53.554;9.964;2023-12-28T19:52:32;10.70;99.90
9965;DHT22;5023;53.554;9.964;2023-12-28T19:57:34;10.80;99.90
9965;DHT22;5023;53.554;9.964;2023-12-28T20:02:36;10.70;99.90
9965;DHT22;5023;53.554;9.964;2023-12-28T20:07:39;10.80;99.90
9965;DHT22;5023;53.554;9.964;2023-12-28T20:12:42;10.70;99.90
9965;DHT22;5023;53.554;9.964;2023-12-28T20:17:44;10.80;99.90
9965;DHT22;5023;53.554;9.964;2023-12-28T20:22:47;10.80;99.90
9965;DHT22;5023;53.554;9.964;2023-12-28T20:27:49;10.80;99.90
9965;DHT22;5023;53.554;9.964;2023-12-28T20:32:51;10.80;99.90
9965;DHT22;5023;53.554;9.964;2023-12-28T20:37:55;10.80;99.90
9965;DHT22;5023;53.554;9.964;2023-12-28T20:42:56;10.80;99.90
9965;DHT22;5023;53.554;9.964;2023-12-28T20:47:58;10.80;99.90
9965;DHT22;5023;53.554;9.964;2023-12-28T20:53:03;10.90;99.90
9965;DHT22;5023;53.554;9.964;2023-12-28T20:58:05;10.80;99.90
9965;DHT22;5023;53.554;9.964;2023-12-28T21:03:07;10.90;99.90
9965;DHT22;5023;53.554;9.964;2023-12-28T21:08:10;10.80;99.90
9965;DHT22;5023;53.554;9.964;2023-12-28T21:13:12;10.90;99.90
9965;DHT22;5023;53.554;9.964;2023-12-28T21:18:18;10.90;99.90
9965;DHT22;5023;53.554;9.964;2023-12-28T21:23:22;10.90;99.90
9965;DHT22;5023;53.554;9.964;2023-12-28T21:28:24;10.90;99.90
9965;DHT22;5023;53.554;9.964;2023-12-28T21:33:25;10.90;99.90
9965;DHT22;5023;53.554;9.964;2023-12-28T21:38:29;10.80;99.90
9965;DHT22;5023;53.554;9.964;2023-12-28T21:43:31;10.90;99.90
9965;DHT22;5023;53.554;9.964;2023-12-28T21:48:33;10.90;99.90
9965;DHT22;5023;53.554;9.964;2023-12-28T21:53:36;10.90;99.90
9965;DHT22;5023;53.554;9.964;2023-12-28T21:58:39;10.90;99.90
9965;DHT22;5023;53.554;9.964;2023-12-28T22:03:41;10.90;99.90
9965;DHT22;5023;53.554;9.964;2023-12-28T22:08:44;10.90;99.90
9965;DHT22;5023;53.554;9.964;2023-12-28T22:13:47;10.90;99.90
9965;DHT22;5023;53.554;9.964;2023-12-28T22:18:49;10.90;99.90
9965;DHT22;5023;53.554;9.964;2023-12-28T22:23:52;10.90;99.90
9965;DHT22;5023;53.554;9.964;2023-12-28T22:28:54;10.90;99.90
9965;DHT22;5023;53.554;9.964;2023-12-28T22:33:56;11.00;99.90
9965;DHT22;5023;53.554;9.964;2023-12-28T22:39:00;10.90;99.90
9965;DHT22;5023;53.554;9.964;2023-12-28T22:44:03;10.90;99.90
9965;DHT22;5023;53.554;9.964;2023-12-28T22:49:05;10.90;99.90
9965;DHT22;5023;53.554;9.964;2023-12-28T22:54:08;11.00;99.90
9965;DHT22;5023;53.554;9.964;2023-12-28T22:59:10;11.00;99.90
9965;DHT22;5023;53.554;9.964;2023-12-28T23:04:12;10.90;99.90
9965;DHT22;5023;53.554;9.964;2023-12-28T23:09:16;11.00;99.90
9965;DHT22;5023;53.554;9.964;2023-12-28T23:14:18;10.90;99.90
9965;DHT22;5023;53.554;9.964;2023-12-28T23:19:20;11.00;99.90
9965;DHT22;5023;53.554;9.964;2023-12-28T23:24:23;10.90;99.90
9965;DHT22;5023;53.554;9.964;2023-12-28T23:29:25;10.80;99.90
9965;DHT22;5023;53.554;9.964;2023-12-28T23:34:27;10.80;99.90
9965;DHT22;5023;53.554;9.964;2023-12-28T23:39:31;10.80;99.90
9965;DHT22;5023;53.554;9.964;2023-12-28T23:44:33;10.80;99.90
9965;DHT22;5023;53.554;9.964;2023-12-28T23:49:35;10.70;99.90
9965;DHT22;5023;53.554;9.964;2023-12-28T23:54:39;10.80;99.90
9965;DHT22;5023;53.554;9.964;2023-12-28T23:59:42;10.70;99.90
